Rio Do Pires, Brazil
Current Conditions -  °F | °C
As of 5:00 AM on Sunday 23 Nov 2014 (Local Time) from SBQV Reporting Station
Scattered Clouds Scattered Clouds  
Wind Chill: 64°   Ceiling: Unl
Heat Index: 64°   Visibility: 6mi
Dew Point: 64°   Wind: 5mph
Humidity: 100%   Direction: 50°NE
Pressure: 30.06"   Gusts: NA
Location:  13.13°S, 42.3°W
Report Text: SBQV 230800Z 05004KT 9999 SCT007 18/18 Q1018
Loading
Personal Weather Stations






























Interactive Weather Map New forecast layout! Learn more

10-Day Weather Forecast

Advertisements
Track Severe Weather on mobile